• Join FlightAware (Why Join?)
  • Login
  • US Flag 
10:37AM EDT


 

Airport Tracker/Info


-or-


 

Live Flight TrackerFlight Track Log ✈ EGF3681 ✈ 20-Aug-2013 ✈ KORD - KDAY

Flight Track Log - Related Links

Times and Time Zones

All times are in EDT time to prevent confusion due to time zone crossing. See the EGF3681 flight status page for this flight to view local times or setup timezone preferences in your user account.

Time Position Orientation Groundspeed Altitude Reporting Facility
EDT Latitude Longitude Course Direction KTS MPH feet Rate Location/Type
11:34PM 41.9356 -87.9075 95° East 191 220 1,900  Level Chicago Center
11:35PM 41.8936 -87.8692 146° Southeast 226 260 3,900 1,980 Climbing Chicago Center
11:36PM 41.9667 -87.5425 90° East  Level FlightAware Approximate
11:36PM 41.8908 -87.7814 92° East 245 282 6,000  Level Chicago Center
11:37PM 41.9558 -87.4244 98° East  Level FlightAware Approximate
11:37PM 41.9003 -87.6797 83° East 270 311 7,900  Level Chicago Center
11:38PM 41.9457 -87.3061 95° East  Level FlightAware Approximate
11:38PM 41.8981 -87.5708 92° East 288 331 10,100  Level Chicago Center
11:39PM 41.9372 -87.1875 95° East  Level FlightAware Approximate
11:39PM 41.8894 -87.4572 96° East 303 349 12,000  Level Chicago Center
11:40PM 41.8806 -87.3197 95° East 311 358 14,200 1,860 Climbing Chicago Center
11:41PM 41.8719 -87.2008 96° East 319 367 15,800 1,560 Climbing Chicago Center
11:42PM 41.8644 -87.0786 95° East 329 379 17,400 1,560 Climbing Chicago Center
11:43PM 41.8558 -86.9544 95° East 335 386 19,000 1,440 Climbing Chicago Center
11:44PM 41.8144 -86.8458 117° Southeast 339 390 20,400 1,440 Climbing Chicago Center
11:45PM 41.7581 -86.7422 126° Southeast 342 394 22,000 1,140 Climbing Chicago Center
11:46PM 41.7056 -86.6408 125° Southeast 352 405 22,700 480 Climbing Chicago Center
11:47PM 41.6450 -86.5258 125° Southeast 375 432 23,000 120 Climbing Chicago Center
11:48PM 41.5789 -86.4011 125° Southeast 407 468 23,000  Level Chicago Center
11:49PM 41.5117 -86.2744 125° Southeast 420 483 23,000  Level Chicago Center
11:50PM 41.4325 -86.1250 125° Southeast 416 479 23,000  Level Chicago Center
11:51PM 41.3664 -86.0011 125° Southeast 413 475 23,000  Level Chicago Center
11:52PM 41.3011 -85.8786 125° Southeast 410 472 23,000  Level Chicago Center
11:53PM 41.2353 -85.7564 126° Southeast 410 472 23,000  Level Chicago Center
11:54PM 41.1708 -85.6358 125° Southeast 406 467 23,000 -120 Level Chicago Center
11:55PM 41.1050 -85.5156 126° Southeast 407 468 22,800 -600 Descending Chicago Center
11:56PM 41.0394 -85.3947 126° Southeast 408 470 21,800 -960 Descending Chicago Center
11:57PM 40.9722 -85.2694 125° Southeast 417 480 20,900 -960 Descending Chicago Center
11:58PM 40.9047 -85.1453 126° Southeast 420 483 19,900 -1,020 Descending Chicago Center
11:59PM 40.8375 -85.0233 126° Southeast 415 478 18,900 -1,020 Descending Chicago Center
12:00AM 40.7736 -84.9072 126° Southeast 400 460 17,900 -900 Descending Chicago Center
12:01AM 40.7106 -84.7947 126° Southeast 388 447 17,100 -900 Descending Chicago Center
12:02AM 40.6478 -84.6822 126° Southeast 383 441 16,100 -1,080 Descending Chicago Center
12:03AM 40.5986 -84.5953 127° Southeast 375 432 15,300 -1,140 Descending Indianapolis Center
12:04AM 40.5333 -84.4783 126° Southeast 372 428 14,200 -1,440 Descending Indianapolis Center
12:05AM 40.4858 -84.3922 126° Southeast 347 399 12,600 -1,560 Descending Indianapolis Center
12:06AM 40.4344 -84.3003 126° Southeast 302 348 11,300 -1,800 Descending Indianapolis Center
12:07AM 40.3836 -84.2058 125° Southeast 293 337 9,000 -1,680 Descending Indianapolis Center
12:08AM 40.3114 -84.1708 160° South 263 303 8,000 -1,080 Descending Indianapolis Center
12:09AM 40.2447 -84.1450 164° South 230 265 6,800 -1,320 Descending Indianapolis Center
12:10AM 40.1919 -84.1658 197° South 225 259 5,300 -1,200 Descending Indianapolis Center
12:11AM 40.1428 -84.2144 217° Southwest 226 260 4,400 -780 Descending Indianapolis Center
12:12AM 40.0875 -84.2183 183° South 215 247 3,900 -720 Descending Indianapolis Center
12:13AM 40.0289 -84.2161 178° South 209 241 3,100 -840 Descending Indianapolis Center
12:14AM 39.9783 -84.2153 179° South 197 227 2,300 -900 Descending Indianapolis Center
12:15AM 39.9553 -84.2139 177° South 201 231 1,800 -840 Descending Indianapolis Center
12:15AM 39.9303 -84.2122 177° South 123 142 1,300 -780 Descending Indianapolis Center